This is the latest recevied weather packets stored in our database for station/object IU4KCH-20. If no packets are shown the sender has not sent any weather packets the latest 10 day(s).
| Time | Temp. | Humidity | Pressure | Rain* | Wind** | Luminosity | Snow |
|---|---|---|---|---|---|---|---|
| 1777587068 | 13.33° C | 43% | 1023.1 hPa | - | - | - | - |
| 1777586167 | 13.89° C | 41% | 1022.8 hPa | - | - | - | - |
| 1777585267 | 13.89° C | 41% | 1022.7 hPa | - | - | - | - |
| 1777584366 | 14.44° C | 38% | 1022.5 hPa | - | - | - | - |
| 1777583465 | 14.44° C | 37% | 1022.5 hPa | - | - | - | - |
| 1777582564 | 15° C | 37% | 1022.5 hPa | - | - | - | - |
| 1777581663 | 15° C | 35% | 1022.5 hPa | - | - | - | - |
| 1777578060 | 16.67° C | 32% | 1021.9 hPa | - | - | - | - |
| 1777576258 | 17.22° C | 31% | 1021.5 hPa | - | - | - | - |
| 1777575358 | 17.78° C | 31% | 1021.3 hPa | - | - | - | - |
| 1777574457 | 17.78° C | 33% | 1021 hPa | - | - | - | - |
| 1777573556 | 18.33° C | 31% | 1020.8 hPa | - | - | - | - |
| 1777572655 | 21.11° C | 28% | 1020.5 hPa | - | - | - | - |
| 1777571754 | 21.67° C | 27% | 1020.4 hPa | - | - | - | - |
| 1777570853 | 21.11° C | 26% | 1020.2 hPa | - | - | - | - |
| 1777569953 | 22.78° C | 25% | 1020 hPa | - | - | - | - |
| 1777569052 | 22.22° C | 24% | 1020 hPa | - | - | - | - |
| 1777568151 | 23.33° C | 23% | 1019.9 hPa | - | - | - | - |
| 1777567250 | 25° C | 22% | 1019.8 hPa | - | - | - | - |
| 1777566349 | 29.44° C | 19% | 1019.7 hPa | - | - | - | - |
| 1777565448 | 24.44° C | 24% | 1019.8 hPa | - | - | - | - |
| 1777564549 | 24.44° C | 24% | 1019.8 hPa | - | - | - | - |
| 1777563647 | 24.44° C | 24% | 1019.8 hPa | - | - | - | - |
| 1777562746 | 27.78° C | 23% | 1019.9 hPa | - | - | - | - |
| 1777561845 | 26.11° C | 25% | 1019.7 hPa | - | - | - | - |
* Rain since midnight (hover to see other rain measurements)
** Current wind speed in m/s (hover to see current wind gust speed)